sensor_id;sensor_type;location;lat;lon;timestamp;P1;durP1;ratioP1;P2;durP2;ratioP2
14748;SDS011;7466;53.574;9.976;2023-03-23T00:01:28;9.40;;;8.43;;
14748;SDS011;7466;53.574;9.976;2023-03-23T00:03:56;11.10;;;9.63;;
14748;SDS011;7466;53.574;9.976;2023-03-23T00:06:25;11.77;;;10.57;;
14748;SDS011;7466;53.574;9.976;2023-03-23T00:08:53;12.03;;;10.83;;
14748;SDS011;7466;53.574;9.976;2023-03-23T00:11:25;12.67;;;11.37;;
14748;SDS011;7466;53.574;9.976;2023-03-23T00:14:01;11.90;;;10.80;;
14748;SDS011;7466;53.574;9.976;2023-03-23T00:16:29;14.27;;;11.70;;
14748;SDS011;7466;53.574;9.976;2023-03-23T00:18:58;13.53;;;12.33;;
14748;SDS011;7466;53.574;9.976;2023-03-23T00:21:27;15.50;;;12.53;;
14748;SDS011;7466;53.574;9.976;2023-03-23T00:24:00;14.43;;;13.13;;
14748;SDS011;7466;53.574;9.976;2023-03-23T00:26:27;15.90;;;14.47;;
14748;SDS011;7466;53.574;9.976;2023-03-23T00:28:54;16.07;;;14.60;;
14748;SDS011;7466;53.574;9.976;2023-03-23T00:31:23;17.07;;;15.20;;
14748;SDS011;7466;53.574;9.976;2023-03-23T00:33:50;16.80;;;15.10;;
14748;SDS011;7466;53.574;9.976;2023-03-23T00:36:17;16.83;;;15.23;;
14748;SDS011;7466;53.574;9.976;2023-03-23T00:38:45;17.43;;;15.60;;
14748;SDS011;7466;53.574;9.976;2023-03-23T00:41:12;16.90;;;15.30;;
14748;SDS011;7466;53.574;9.976;2023-03-23T00:43:40;16.43;;;14.83;;
14748;SDS011;7466;53.574;9.976;2023-03-23T00:46:07;18.23;;;16.50;;
14748;SDS011;7466;53.574;9.976;2023-03-23T00:48:36;17.67;;;15.60;;
14748;SDS011;7466;53.574;9.976;2023-03-23T00:51:06;18.37;;;16.63;;
14748;SDS011;7466;53.574;9.976;2023-03-23T00:53:35;17.63;;;16.07;;
14748;SDS011;7466;53.574;9.976;2023-03-23T00:56:02;17.83;;;16.23;;
14748;SDS011;7466;53.574;9.976;2023-03-23T00:58:29;16.57;;;15.07;;
14748;SDS011;7466;53.574;9.976;2023-03-23T01:01:00;15.90;;;14.57;;
14748;SDS011;7466;53.574;9.976;2023-03-23T01:03:27;16.17;;;14.67;;
14748;SDS011;7466;53.574;9.976;2023-03-23T01:05:55;16.50;;;14.77;;
14748;SDS011;7466;53.574;9.976;2023-03-23T01:08:30;17.33;;;15.43;;
14748;SDS011;7466;53.574;9.976;2023-03-23T01:11:05;16.60;;;15.20;;
14748;SDS011;7466;53.574;9.976;2023-03-23T01:13:33;16.60;;;15.10;;
14748;SDS011;7466;53.574;9.976;2023-03-23T01:16:01;15.33;;;13.93;;
14748;SDS011;7466;53.574;9.976;2023-03-23T01:18:28;15.83;;;14.43;;
14748;SDS011;7466;53.574;9.976;2023-03-23T01:20:57;16.20;;;14.73;;
14748;SDS011;7466;53.574;9.976;2023-03-23T01:23:23;15.33;;;14.00;;
14748;SDS011;7466;53.574;9.976;2023-03-23T01:25:50;15.83;;;14.43;;
14748;SDS011;7466;53.574;9.976;2023-03-23T01:28:19;15.70;;;14.30;;
14748;SDS011;7466;53.574;9.976;2023-03-23T01:30:46;15.47;;;14.07;;
14748;SDS011;7466;53.574;9.976;2023-03-23T01:33:12;16.40;;;15.00;;
14748;SDS011;7466;53.574;9.976;2023-03-23T01:35:39;17.60;;;16.00;;
14748;SDS011;7466;53.574;9.976;2023-03-23T01:38:10;16.30;;;14.70;;
14748;SDS011;7466;53.574;9.976;2023-03-23T01:40:37;17.17;;;15.60;;
14748;SDS011;7466;53.574;9.976;2023-03-23T01:43:07;17.70;;;15.87;;
14748;SDS011;7466;53.574;9.976;2023-03-23T01:45:39;18.93;;;17.03;;
14748;SDS011;7466;53.574;9.976;2023-03-23T01:48:09;18.77;;;16.97;;
14748;SDS011;7466;53.574;9.976;2023-03-23T01:50:42;19.07;;;17.20;;
14748;SDS011;7466;53.574;9.976;2023-03-23T01:53:14;18.80;;;16.93;;
14748;SDS011;7466;53.574;9.976;2023-03-23T01:55:42;19.43;;;17.40;;
14748;SDS011;7466;53.574;9.976;2023-03-23T01:58:13;19.67;;;17.67;;
14748;SDS011;7466;53.574;9.976;2023-03-23T02:00:41;18.87;;;17.10;;
14748;SDS011;7466;53.574;9.976;2023-03-23T02:03:08;19.60;;;16.90;;
14748;SDS011;7466;53.574;9.976;2023-03-23T02:05:39;17.57;;;15.87;;
14748;SDS011;7466;53.574;9.976;2023-03-23T02:08:07;18.23;;;16.50;;
14748;SDS011;7466;53.574;9.976;2023-03-23T02:10:37;17.93;;;16.13;;
14748;SDS011;7466;53.574;9.976;2023-03-23T02:13:05;18.20;;;16.37;;
14748;SDS011;7466;53.574;9.976;2023-03-23T02:15:36;17.20;;;15.57;;
14748;SDS011;7466;53.574;9.976;2023-03-23T02:18:13;17.13;;;15.53;;
14748;SDS011;7466;53.574;9.976;2023-03-23T02:23:49;17.60;;;15.83;;
14748;SDS011;7466;53.574;9.976;2023-03-23T02:26:31;16.63;;;15.13;;
14748;SDS011;7466;53.574;9.976;2023-03-23T02:29:11;17.50;;;15.87;;
14748;SDS011;7466;53.574;9.976;2023-03-23T02:31:56;16.70;;;15.20;;
14748;SDS011;7466;53.574;9.976;2023-03-23T02:34:42;17.60;;;15.90;;
14748;SDS011;7466;53.574;9.976;2023-03-23T02:37:14;16.87;;;15.37;;
14748;SDS011;7466;53.574;9.976;2023-03-23T02:39:49;17.23;;;15.63;;
14748;SDS011;7466;53.574;9.976;2023-03-23T02:42:20;16.87;;;15.33;;
14748;SDS011;7466;53.574;9.976;2023-03-23T02:44:51;16.77;;;15.17;;
14748;SDS011;7466;53.574;9.976;2023-03-23T02:47:20;17.33;;;15.73;;
14748;SDS011;7466;53.574;9.976;2023-03-23T02:49:51;16.83;;;15.17;;
14748;SDS011;7466;53.574;9.976;2023-03-23T02:52:21;16.33;;;14.93;;
14748;SDS011;7466;53.574;9.976;2023-03-23T02:54:50;16.27;;;14.63;;
14748;SDS011;7466;53.574;9.976;2023-03-23T02:57:18;15.57;;;14.17;;
14748;SDS011;7466;53.574;9.976;2023-03-23T02:59:46;15.93;;;14.53;;
14748;SDS011;7466;53.574;9.976;2023-03-23T03:02:13;15.50;;;14.07;;
14748;SDS011;7466;53.574;9.976;2023-03-23T03:04:44;17.20;;;15.60;;
14748;SDS011;7466;53.574;9.976;2023-03-23T03:10:16;16.83;;;15.37;;
14748;SDS011;7466;53.574;9.976;2023-03-23T03:12:50;16.23;;;14.87;;
14748;SDS011;7466;53.574;9.976;2023-03-23T03:15:25;16.43;;;14.93;;
14748;SDS011;7466;53.574;9.976;2023-03-23T03:17:58;16.33;;;14.93;;
14748;SDS011;7466;53.574;9.976;2023-03-23T03:20:29;15.60;;;14.40;;
14748;SDS011;7466;53.574;9.976;2023-03-23T03:22:59;16.43;;;15.03;;
14748;SDS011;7466;53.574;9.976;2023-03-23T03:25:27;16.87;;;15.37;;
14748;SDS011;7466;53.574;9.976;2023-03-23T03:27:55;16.93;;;15.30;;
14748;SDS011;7466;53.574;9.976;2023-03-23T03:30:24;17.23;;;15.73;;
14748;SDS011;7466;53.574;9.976;2023-03-23T03:32:55;16.83;;;15.17;;
14748;SDS011;7466;53.574;9.976;2023-03-23T03:35:25;16.50;;;14.77;;
14748;SDS011;7466;53.574;9.976;2023-03-23T03:37:53;16.03;;;14.63;;
14748;SDS011;7466;53.574;9.976;2023-03-23T03:40:21;16.57;;;15.00;;
14748;SDS011;7466;53.574;9.976;2023-03-23T03:42:49;16.53;;;15.00;;
14748;SDS011;7466;53.574;9.976;2023-03-23T03:45:17;15.43;;;13.90;;
14748;SDS011;7466;53.574;9.976;2023-03-23T03:47:45;16.17;;;14.30;;
14748;SDS011;7466;53.574;9.976;2023-03-23T03:50:12;15.37;;;14.07;;
14748;SDS011;7466;53.574;9.976;2023-03-23T03:52:38;15.93;;;14.53;;
14748;SDS011;7466;53.574;9.976;2023-03-23T03:55:06;16.17;;;14.67;;
14748;SDS011;7466;53.574;9.976;2023-03-23T03:57:54;16.00;;;14.60;;
14748;SDS011;7466;53.574;9.976;2023-03-23T04:00:22;16.60;;;14.90;;
14748;SDS011;7466;53.574;9.976;2023-03-23T04:02:49;15.97;;;14.37;;
14748;SDS011;7466;53.574;9.976;2023-03-23T04:05:19;14.87;;;13.47;;
14748;SDS011;7466;53.574;9.976;2023-03-23T04:07:46;15.43;;;14.03;;
14748;SDS011;7466;53.574;9.976;2023-03-23T04:10:14;15.03;;;13.63;;
14748;SDS011;7466;53.574;9.976;2023-03-23T04:12:42;15.90;;;14.40;;
14748;SDS011;7466;53.574;9.976;2023-03-23T04:15:11;14.83;;;13.37;;
14748;SDS011;7466;53.574;9.976;2023-03-23T04:17:37;15.20;;;14.00;;
14748;SDS011;7466;53.574;9.976;2023-03-23T04:20:08;15.17;;;13.53;;
14748;SDS011;7466;53.574;9.976;2023-03-23T04:22:40;15.97;;;14.33;;
14748;SDS011;7466;53.574;9.976;2023-03-23T04:25:09;15.30;;;13.90;;
14748;SDS011;7466;53.574;9.976;2023-03-23T04:27:37;15.37;;;13.97;;
14748;SDS011;7466;53.574;9.976;2023-03-23T04:30:05;15.50;;;14.03;;
14748;SDS011;7466;53.574;9.976;2023-03-23T04:32:34;15.40;;;13.80;;
14748;SDS011;7466;53.574;9.976;2023-03-23T04:35:05;14.83;;;13.43;;
14748;SDS011;7466;53.574;9.976;2023-03-23T04:37:33;14.43;;;13.20;;
14748;SDS011;7466;53.574;9.976;2023-03-23T04:40:01;15.50;;;14.17;;
14748;SDS011;7466;53.574;9.976;2023-03-23T04:42:37;15.23;;;13.90;;
14748;SDS011;7466;53.574;9.976;2023-03-23T04:45:05;14.90;;;13.30;;
14748;SDS011;7466;53.574;9.976;2023-03-23T04:47:35;14.47;;;13.20;;
14748;SDS011;7466;53.574;9.976;2023-03-23T04:50:06;14.57;;;13.10;;
14748;SDS011;7466;53.574;9.976;2023-03-23T04:52:34;14.30;;;12.83;;
14748;SDS011;7466;53.574;9.976;2023-03-23T04:55:03;14.80;;;13.30;;
14748;SDS011;7466;53.574;9.976;2023-03-23T04:57:30;15.57;;;13.13;;
14748;SDS011;7466;53.574;9.976;2023-03-23T04:59:58;13.57;;;12.27;;
14748;SDS011;7466;53.574;9.976;2023-03-23T05:02:25;13.80;;;12.60;;
14748;SDS011;7466;53.574;9.976;2023-03-23T05:04:56;13.73;;;12.60;;
14748;SDS011;7466;53.574;9.976;2023-03-23T05:07:24;13.77;;;12.67;;
14748;SDS011;7466;53.574;9.976;2023-03-23T05:09:55;13.87;;;12.73;;
14748;SDS011;7466;53.574;9.976;2023-03-23T05:12:24;13.50;;;12.23;;
14748;SDS011;7466;53.574;9.976;2023-03-23T05:14:53;13.57;;;12.43;;
14748;SDS011;7466;53.574;9.976;2023-03-23T05:17:20;14.27;;;12.87;;
14748;SDS011;7466;53.574;9.976;2023-03-23T05:19:49;13.77;;;12.67;;
14748;SDS011;7466;53.574;9.976;2023-03-23T05:22:18;13.00;;;11.97;;
14748;SDS011;7466;53.574;9.976;2023-03-23T05:24:47;12.53;;;11.43;;
14748;SDS011;7466;53.574;9.976;2023-03-23T05:27:16;13.67;;;12.30;;
14748;SDS011;7466;53.574;9.976;2023-03-23T05:29:44;13.37;;;12.17;;
14748;SDS011;7466;53.574;9.976;2023-03-23T05:32:19;13.20;;;11.90;;
14748;SDS011;7466;53.574;9.976;2023-03-23T05:34:53;13.07;;;11.70;;
14748;SDS011;7466;53.574;9.976;2023-03-23T05:37:22;12.70;;;11.50;;
14748;SDS011;7466;53.574;9.976;2023-03-23T05:39:50;12.90;;;11.53;;
14748;SDS011;7466;53.574;9.976;2023-03-23T05:42:18;12.70;;;11.57;;
14748;SDS011;7466;53.574;9.976;2023-03-23T05:44:45;12.20;;;11.20;;
14748;SDS011;7466;53.574;9.976;2023-03-23T05:47:12;11.77;;;10.77;;
14748;SDS011;7466;53.574;9.976;2023-03-23T05:49:39;12.37;;;11.20;;
14748;SDS011;7466;53.574;9.976;2023-03-23T05:52:07;11.60;;;10.50;;
14748;SDS011;7466;53.574;9.976;2023-03-23T05:54:35;11.10;;;10.20;;
14748;SDS011;7466;53.574;9.976;2023-03-23T05:57:02;11.13;;;10.13;;
14748;SDS011;7466;53.574;9.976;2023-03-23T05:59:30;10.07;;;9.20;;
14748;SDS011;7466;53.574;9.976;2023-03-23T06:01:58;11.17;;;10.17;;
14748;SDS011;7466;53.574;9.976;2023-03-23T06:04:26;10.57;;;9.67;;
14748;SDS011;7466;53.574;9.976;2023-03-23T06:06:53;10.00;;;9.00;;
14748;SDS011;7466;53.574;9.976;2023-03-23T06:09:19;9.33;;;8.53;;
14748;SDS011;7466;53.574;9.976;2023-03-23T06:11:51;9.60;;;8.77;;
14748;SDS011;7466;53.574;9.976;2023-03-23T06:14:17;11.80;;;8.33;;
14748;SDS011;7466;53.574;9.976;2023-03-23T06:16:46;9.53;;;8.57;;
14748;SDS011;7466;53.574;9.976;2023-03-23T06:19:13;10.97;;;7.77;;
14748;SDS011;7466;53.574;9.976;2023-03-23T06:21:40;9.23;;;8.03;;
14748;SDS011;7466;53.574;9.976;2023-03-23T06:24:07;8.63;;;7.73;;
14748;SDS011;7466;53.574;9.976;2023-03-23T06:26:42;12.73;;;8.07;;
14748;SDS011;7466;53.574;9.976;2023-03-23T06:29:10;8.50;;;7.70;;
14748;SDS011;7466;53.574;9.976;2023-03-23T06:31:37;8.17;;;7.40;;
14748;SDS011;7466;53.574;9.976;2023-03-23T06:34:06;8.83;;;7.30;;
14748;SDS011;7466;53.574;9.976;2023-03-23T06:36:34;8.00;;;7.23;;
14748;SDS011;7466;53.574;9.976;2023-03-23T06:39:02;8.23;;;7.37;;
14748;SDS011;7466;53.574;9.976;2023-03-23T06:41:30;8.47;;;7.70;;
14748;SDS011;7466;53.574;9.976;2023-03-23T06:43:57;8.13;;;6.37;;
14748;SDS011;7466;53.574;9.976;2023-03-23T06:46:25;7.27;;;6.57;;
14748;SDS011;7466;53.574;9.976;2023-03-23T06:48:53;9.53;;;6.10;;
14748;SDS011;7466;53.574;9.976;2023-03-23T06:51:20;7.20;;;6.50;;
14748;SDS011;7466;53.574;9.976;2023-03-23T06:53:47;6.40;;;5.90;;
14748;SDS011;7466;53.574;9.976;2023-03-23T06:56:22;6.37;;;5.80;;
14748;SDS011;7466;53.574;9.976;2023-03-23T06:58:49;7.77;;;6.20;;
14748;SDS011;7466;53.574;9.976;2023-03-23T07:01:16;6.20;;;5.70;;
14748;SDS011;7466;53.574;9.976;2023-03-23T07:03:44;6.37;;;5.70;;
14748;SDS011;7466;53.574;9.976;2023-03-23T07:06:12;6.00;;;5.40;;
14748;SDS011;7466;53.574;9.976;2023-03-23T07:08:39;5.67;;;5.20;;
14748;SDS011;7466;53.574;9.976;2023-03-23T07:11:06;5.70;;;5.20;;
14748;SDS011;7466;53.574;9.976;2023-03-23T07:13:33;4.83;;;4.50;;
14748;SDS011;7466;53.574;9.976;2023-03-23T07:15:59;5.60;;;5.10;;
14748;SDS011;7466;53.574;9.976;2023-03-23T07:18:33;5.20;;;4.80;;
14748;SDS011;7466;53.574;9.976;2023-03-23T07:21:04;6.40;;;4.23;;
14748;SDS011;7466;53.574;9.976;2023-03-23T07:23:31;7.37;;;4.90;;
14748;SDS011;7466;53.574;9.976;2023-03-23T07:26:00;5.73;;;4.70;;
14748;SDS011;7466;53.574;9.976;2023-03-23T07:28:28;5.10;;;4.70;;
14748;SDS011;7466;53.574;9.976;2023-03-23T07:30:57;5.27;;;4.77;;
14748;SDS011;7466;53.574;9.976;2023-03-23T07:33:24;4.80;;;4.37;;
14748;SDS011;7466;53.574;9.976;2023-03-23T07:35:52;5.00;;;4.57;;
14748;SDS011;7466;53.574;9.976;2023-03-23T07:38:20;5.43;;;4.27;;
14748;SDS011;7466;53.574;9.976;2023-03-23T07:40:48;5.30;;;4.47;;
14748;SDS011;7466;53.574;9.976;2023-03-23T07:43:16;4.83;;;4.43;;
14748;SDS011;7466;53.574;9.976;2023-03-23T07:45:42;4.37;;;3.97;;
14748;SDS011;7466;53.574;9.976;2023-03-23T07:48:10;4.67;;;4.27;;
14748;SDS011;7466;53.574;9.976;2023-03-23T07:50:37;6.70;;;4.53;;
14748;SDS011;7466;53.574;9.976;2023-03-23T07:53:05;5.07;;;4.57;;
14748;SDS011;7466;53.574;9.976;2023-03-23T07:55:33;4.57;;;4.27;;
14748;SDS011;7466;53.574;9.976;2023-03-23T07:58:00;4.73;;;4.33;;
14748;SDS011;7466;53.574;9.976;2023-03-23T08:00:35;5.13;;;4.77;;
14748;SDS011;7466;53.574;9.976;2023-03-23T08:03:04;5.87;;;5.40;;
14748;SDS011;7466;53.574;9.976;2023-03-23T08:05:32;5.77;;;4.90;;
14748;SDS011;7466;53.574;9.976;2023-03-23T08:07:59;7.83;;;4.93;;
14748;SDS011;7466;53.574;9.976;2023-03-23T08:10:26;6.03;;;5.50;;
14748;SDS011;7466;53.574;9.976;2023-03-23T08:12:55;6.00;;;5.50;;
14748;SDS011;7466;53.574;9.976;2023-03-23T08:15:24;6.60;;;6.00;;
14748;SDS011;7466;53.574;9.976;2023-03-23T08:17:51;6.20;;;5.70;;
14748;SDS011;7466;53.574;9.976;2023-03-23T08:20:18;6.80;;;6.30;;
14748;SDS011;7466;53.574;9.976;2023-03-23T08:22:48;6.47;;;5.97;;
14748;SDS011;7466;53.574;9.976;2023-03-23T08:25:18;6.83;;;6.23;;
14748;SDS011;7466;53.574;9.976;2023-03-23T08:27:45;6.20;;;5.80;;
14748;SDS011;7466;53.574;9.976;2023-03-23T08:30:15;6.50;;;5.93;;
14748;SDS011;7466;53.574;9.976;2023-03-23T08:32:48;4.80;;;4.40;;
14748;SDS011;7466;53.574;9.976;2023-03-23T08:35:16;4.20;;;3.90;;
14748;SDS011;7466;53.574;9.976;2023-03-23T08:37:52;6.33;;;3.70;;
14748;SDS011;7466;53.574;9.976;2023-03-23T08:40:20;3.53;;;3.33;;
14748;SDS011;7466;53.574;9.976;2023-03-23T08:42:48;4.27;;;3.80;;
14748;SDS011;7466;53.574;9.976;2023-03-23T08:45:18;4.27;;;3.00;;
14748;SDS011;7466;53.574;9.976;2023-03-23T08:47:47;3.47;;;2.63;;
14748;SDS011;7466;53.574;9.976;2023-03-23T08:50:17;4.90;;;2.87;;
14748;SDS011;7466;53.574;9.976;2023-03-23T08:52:46;4.27;;;2.43;;
14748;SDS011;7466;53.574;9.976;2023-03-23T08:55:15;2.93;;;2.23;;
14748;SDS011;7466;53.574;9.976;2023-03-23T08:57:42;4.93;;;3.13;;
14748;SDS011;7466;53.574;9.976;2023-03-23T09:00:10;3.23;;;2.60;;
14748;SDS011;7466;53.574;9.976;2023-03-23T09:02:44;3.20;;;2.90;;
14748;SDS011;7466;53.574;9.976;2023-03-23T09:05:12;4.30;;;3.30;;
14748;SDS011;7466;53.574;9.976;2023-03-23T09:07:39;5.17;;;3.30;;
14748;SDS011;7466;53.574;9.976;2023-03-23T09:10:09;3.43;;;2.87;;
14748;SDS011;7466;53.574;9.976;2023-03-23T09:12:38;5.87;;;3.33;;
14748;SDS011;7466;53.574;9.976;2023-03-23T09:15:06;4.57;;;2.87;;
14748;SDS011;7466;53.574;9.976;2023-03-23T09:17:35;5.17;;;2.87;;
14748;SDS011;7466;53.574;9.976;2023-03-23T09:20:06;4.13;;;2.43;;
14748;SDS011;7466;53.574;9.976;2023-03-23T09:22:37;5.90;;;2.60;;
14748;SDS011;7466;53.574;9.976;2023-03-23T09:25:06;7.80;;;2.83;;
14748;SDS011;7466;53.574;9.976;2023-03-23T09:27:35;6.57;;;2.67;;
14748;SDS011;7466;53.574;9.976;2023-03-23T09:30:04;9.60;;;2.80;;
14748;SDS011;7466;53.574;9.976;2023-03-23T09:32:33;5.97;;;2.43;;
14748;SDS011;7466;53.574;9.976;2023-03-23T09:35:01;9.87;;;2.73;;
14748;SDS011;7466;53.574;9.976;2023-03-23T09:37:30;10.73;;;3.00;;
14748;SDS011;7466;53.574;9.976;2023-03-23T09:39:58;5.37;;;2.30;;
14748;SDS011;7466;53.574;9.976;2023-03-23T09:42:31;9.37;;;2.67;;
14748;SDS011;7466;53.574;9.976;2023-03-23T09:45:09;9.17;;;2.77;;
14748;SDS011;7466;53.574;9.976;2023-03-23T09:47:48;6.23;;;2.87;;
14748;SDS011;7466;53.574;9.976;2023-03-23T09:50:24;9.90;;;2.97;;
14748;SDS011;7466;53.574;9.976;2023-03-23T09:52:59;9.00;;;3.30;;
14748;SDS011;7466;53.574;9.976;2023-03-23T09:55:39;11.87;;;3.27;;
14748;SDS011;7466;53.574;9.976;2023-03-23T09:58:09;9.03;;;3.17;;
14748;SDS011;7466;53.574;9.976;2023-03-23T10:00:41;8.50;;;2.47;;
14748;SDS011;7466;53.574;9.976;2023-03-23T10:03:13;9.67;;;2.93;;
14748;SDS011;7466;53.574;9.976;2023-03-23T10:05:42;6.67;;;2.50;;
14748;SDS011;7466;53.574;9.976;2023-03-23T10:08:16;6.90;;;2.70;;
14748;SDS011;7466;53.574;9.976;2023-03-23T10:10:50;9.23;;;2.67;;
14748;SDS011;7466;53.574;9.976;2023-03-23T10:13:28;11.00;;;2.90;;
14748;SDS011;7466;53.574;9.976;2023-03-23T10:16:08;9.33;;;2.73;;
14748;SDS011;7466;53.574;9.976;2023-03-23T10:18:38;8.17;;;2.67;;
14748;SDS011;7466;53.574;9.976;2023-03-23T10:21:11;8.20;;;2.90;;
14748;SDS011;7466;53.574;9.976;2023-03-23T10:23:47;5.40;;;2.33;;
14748;SDS011;7466;53.574;9.976;2023-03-23T10:26:32;9.73;;;3.27;;
14748;SDS011;7466;53.574;9.976;2023-03-23T10:29:08;7.93;;;2.47;;
14748;SDS011;7466;53.574;9.976;2023-03-23T10:31:41;9.23;;;2.80;;
14748;SDS011;7466;53.574;9.976;2023-03-23T10:34:12;8.17;;;2.70;;
14748;SDS011;7466;53.574;9.976;2023-03-23T10:36:51;11.07;;;3.13;;
14748;SDS011;7466;53.574;9.976;2023-03-23T10:39:25;6.23;;;2.47;;
14748;SDS011;7466;53.574;9.976;2023-03-23T10:41:56;7.67;;;3.10;;
14748;SDS011;7466;53.574;9.976;2023-03-23T10:44:32;7.93;;;2.40;;
14748;SDS011;7466;53.574;9.976;2023-03-23T10:47:00;6.30;;;2.70;;
14748;SDS011;7466;53.574;9.976;2023-03-23T10:49:32;8.10;;;3.20;;
14748;SDS011;7466;53.574;9.976;2023-03-23T10:52:07;7.03;;;2.93;;
14748;SDS011;7466;53.574;9.976;2023-03-23T10:54:49;10.37;;;3.43;;
14748;SDS011;7466;53.574;9.976;2023-03-23T10:57:22;6.60;;;2.83;;
14748;SDS011;7466;53.574;9.976;2023-03-23T10:59:50;8.70;;;2.80;;
14748;SDS011;7466;53.574;9.976;2023-03-23T11:02:19;7.23;;;2.80;;
14748;SDS011;7466;53.574;9.976;2023-03-23T11:04:57;8.77;;;2.73;;
14748;SDS011;7466;53.574;9.976;2023-03-23T11:07:28;8.97;;;3.07;;
14748;SDS011;7466;53.574;9.976;2023-03-23T11:10:04;13.23;;;3.10;;
14748;SDS011;7466;53.574;9.976;2023-03-23T11:12:38;10.17;;;3.23;;
14748;SDS011;7466;53.574;9.976;2023-03-23T11:15:30;8.93;;;2.83;;
14748;SDS011;7466;53.574;9.976;2023-03-23T11:18:00;8.17;;;3.00;;
14748;SDS011;7466;53.574;9.976;2023-03-23T11:20:29;13.83;;;2.70;;
14748;SDS011;7466;53.574;9.976;2023-03-23T11:23:01;8.70;;;2.60;;
14748;SDS011;7466;53.574;9.976;2023-03-23T11:25:39;10.70;;;3.40;;
14748;SDS011;7466;53.574;9.976;2023-03-23T11:28:18;11.53;;;2.90;;
14748;SDS011;7466;53.574;9.976;2023-03-23T11:30:45;9.00;;;3.10;;
14748;SDS011;7466;53.574;9.976;2023-03-23T11:33:12;9.27;;;3.10;;
14748;SDS011;7466;53.574;9.976;2023-03-23T11:35:42;13.57;;;3.20;;
14748;SDS011;7466;53.574;9.976;2023-03-23T11:38:19;10.67;;;3.23;;
14748;SDS011;7466;53.574;9.976;2023-03-23T11:40:49;10.63;;;3.83;;
14748;SDS011;7466;53.574;9.976;2023-03-23T11:43:18;13.47;;;3.73;;
14748;SDS011;7466;53.574;9.976;2023-03-23T11:45:51;13.27;;;3.40;;
14748;SDS011;7466;53.574;9.976;2023-03-23T11:48:29;11.53;;;3.83;;
14748;SDS011;7466;53.574;9.976;2023-03-23T11:51:04;10.30;;;3.80;;
14748;SDS011;7466;53.574;9.976;2023-03-23T11:53:40;12.20;;;3.73;;
14748;SDS011;7466;53.574;9.976;2023-03-23T11:56:23;12.03;;;3.93;;
14748;SDS011;7466;53.574;9.976;2023-03-23T11:58:53;10.77;;;3.40;;
14748;SDS011;7466;53.574;9.976;2023-03-23T12:01:24;11.70;;;3.70;;
14748;SDS011;7466;53.574;9.976;2023-03-23T12:04:10;11.73;;;3.87;;
14748;SDS011;7466;53.574;9.976;2023-03-23T12:07:10;9.50;;;3.37;;
14748;SDS011;7466;53.574;9.976;2023-03-23T12:09:46;10.17;;;3.60;;
14748;SDS011;7466;53.574;9.976;2023-03-23T12:12:29;10.00;;;3.40;;
14748;SDS011;7466;53.574;9.976;2023-03-23T12:17:59;12.30;;;3.73;;
14748;SDS011;7466;53.574;9.976;2023-03-23T12:20:35;9.93;;;3.50;;
14748;SDS011;7466;53.574;9.976;2023-03-23T12:23:11;7.83;;;4.47;;
14748;SDS011;7466;53.574;9.976;2023-03-23T12:25:56;11.43;;;4.37;;
14748;SDS011;7466;53.574;9.976;2023-03-23T12:28:38;10.57;;;4.53;;
14748;SDS011;7466;53.574;9.976;2023-03-23T12:31:21;7.20;;;4.33;;
14748;SDS011;7466;53.574;9.976;2023-03-23T12:33:55;13.83;;;4.57;;
14748;SDS011;7466;53.574;9.976;2023-03-23T12:36:36;10.73;;;4.10;;
14748;SDS011;7466;53.574;9.976;2023-03-23T12:39:15;10.00;;;4.07;;
14748;SDS011;7466;53.574;9.976;2023-03-23T12:42:03;10.27;;;4.20;;
14748;SDS011;7466;53.574;9.976;2023-03-23T12:44:39;11.23;;;4.30;;
14748;SDS011;7466;53.574;9.976;2023-03-23T12:47:21;11.50;;;4.67;;
14748;SDS011;7466;53.574;9.976;2023-03-23T12:50:07;13.47;;;4.80;;
14748;SDS011;7466;53.574;9.976;2023-03-23T12:52:42;9.37;;;4.17;;
14748;SDS011;7466;53.574;9.976;2023-03-23T12:55:19;7.83;;;3.73;;
14748;SDS011;7466;53.574;9.976;2023-03-23T12:57:52;12.10;;;4.00;;
14748;SDS011;7466;53.574;9.976;2023-03-23T13:00:29;8.20;;;3.97;;
14748;SDS011;7466;53.574;9.976;2023-03-23T13:03:05;9.93;;;3.90;;
14748;SDS011;7466;53.574;9.976;2023-03-23T13:05:40;10.53;;;3.70;;
14748;SDS011;7466;53.574;9.976;2023-03-23T13:08:12;9.23;;;4.03;;
14748;SDS011;7466;53.574;9.976;2023-03-23T13:10:44;9.27;;;4.03;;
14748;SDS011;7466;53.574;9.976;2023-03-23T13:13:14;9.57;;;3.80;;
14748;SDS011;7466;53.574;9.976;2023-03-23T13:15:48;9.57;;;4.20;;
14748;SDS011;7466;53.574;9.976;2023-03-23T13:18:25;8.17;;;3.60;;
14748;SDS011;7466;53.574;9.976;2023-03-23T13:21:02;12.03;;;3.87;;
14748;SDS011;7466;53.574;9.976;2023-03-23T13:23:38;8.67;;;3.37;;
14748;SDS011;7466;53.574;9.976;2023-03-23T13:26:08;8.10;;;3.43;;
14748;SDS011;7466;53.574;9.976;2023-03-23T13:28:46;6.53;;;3.50;;
14748;SDS011;7466;53.574;9.976;2023-03-23T13:31:19;4.97;;;2.70;;
14748;SDS011;7466;53.574;9.976;2023-03-23T13:33:50;7.63;;;3.30;;
14748;SDS011;7466;53.574;9.976;2023-03-23T13:36:25;7.90;;;3.43;;
14748;SDS011;7466;53.574;9.976;2023-03-23T13:38:54;7.83;;;3.67;;
14748;SDS011;7466;53.574;9.976;2023-03-23T13:41:24;6.93;;;3.70;;
14748;SDS011;7466;53.574;9.976;2023-03-23T13:43:52;6.43;;;3.17;;
14748;SDS011;7466;53.574;9.976;2023-03-23T13:46:33;7.30;;;3.00;;
14748;SDS011;7466;53.574;9.976;2023-03-23T13:49:16;8.10;;;3.60;;
14748;SDS011;7466;53.574;9.976;2023-03-23T13:51:57;6.33;;;3.10;;
14748;SDS011;7466;53.574;9.976;2023-03-23T13:54:30;4.30;;;3.20;;
14748;SDS011;7466;53.574;9.976;2023-03-23T13:57:18;4.40;;;2.90;;
14748;SDS011;7466;53.574;9.976;2023-03-23T13:59:55;4.30;;;2.90;;
14748;SDS011;7466;53.574;9.976;2023-03-23T14:02:36;2.80;;;1.53;;
14748;SDS011;7466;53.574;9.976;2023-03-23T14:05:10;3.50;;;1.40;;
14748;SDS011;7466;53.574;9.976;2023-03-23T14:07:54;4.00;;;1.40;;
14748;SDS011;7466;53.574;9.976;2023-03-23T14:10:31;5.50;;;1.93;;
14748;SDS011;7466;53.574;9.976;2023-03-23T14:13:00;5.07;;;1.90;;
14748;SDS011;7466;53.574;9.976;2023-03-23T14:15:43;2.83;;;1.40;;
14748;SDS011;7466;53.574;9.976;2023-03-23T14:18:23;5.27;;;1.97;;
14748;SDS011;7466;53.574;9.976;2023-03-23T14:20:53;4.37;;;2.00;;
14748;SDS011;7466;53.574;9.976;2023-03-23T14:23:21;2.60;;;1.80;;
14748;SDS011;7466;53.574;9.976;2023-03-23T14:26:00;5.80;;;2.30;;
14748;SDS011;7466;53.574;9.976;2023-03-23T14:28:38;3.00;;;2.00;;
14748;SDS011;7466;53.574;9.976;2023-03-23T14:31:11;4.63;;;2.20;;
14748;SDS011;7466;53.574;9.976;2023-03-23T14:33:44;2.80;;;2.33;;
14748;SDS011;7466;53.574;9.976;2023-03-23T14:36:13;5.93;;;2.20;;
14748;SDS011;7466;53.574;9.976;2023-03-23T14:38:40;3.72;;;2.17;;
14748;SDS011;7466;53.574;9.976;2023-03-23T14:41:10;6.28;;;2.25;;
14748;SDS011;7466;53.574;9.976;2023-03-23T14:43:38;4.57;;;2.10;;
14748;SDS011;7466;53.574;9.976;2023-03-23T14:46:06;3.47;;;2.00;;
14748;SDS011;7466;53.574;9.976;2023-03-23T14:48:35;5.30;;;2.07;;
14748;SDS011;7466;53.574;9.976;2023-03-23T14:51:04;3.67;;;2.10;;
14748;SDS011;7466;53.574;9.976;2023-03-23T14:53:33;3.83;;;1.97;;
14748;SDS011;7466;53.574;9.976;2023-03-23T14:56:04;6.37;;;2.10;;
14748;SDS011;7466;53.574;9.976;2023-03-23T14:58:36;4.37;;;1.90;;
14748;SDS011;7466;53.574;9.976;2023-03-23T15:01:12;6.47;;;1.93;;
14748;SDS011;7466;53.574;9.976;2023-03-23T15:03:43;5.83;;;2.20;;
14748;SDS011;7466;53.574;9.976;2023-03-23T15:06:14;4.80;;;1.87;;
14748;SDS011;7466;53.574;9.976;2023-03-23T15:08:44;4.50;;;2.00;;
14748;SDS011;7466;53.574;9.976;2023-03-23T15:11:20;2.53;;;1.80;;
14748;SDS011;7466;53.574;9.976;2023-03-23T15:13:52;3.93;;;2.00;;
14748;SDS011;7466;53.574;9.976;2023-03-23T15:16:23;4.23;;;1.97;;
14748;SDS011;7466;53.574;9.976;2023-03-23T15:18:53;4.40;;;1.80;;
14748;SDS011;7466;53.574;9.976;2023-03-23T15:21:26;5.47;;;2.40;;